Time;durP1;ratioP1;P1;durP2;ratioP2;P2;SDS_P1;SDS_P2;PMS_P1;PMS_P2;Temp;Humidity;BMP_temperature;BMP_pressure;BME280_temperature;BME280_humidity;BME280_pressure;Samples;Min_cycle;Max_cycle;Signal;HPM_P1;HPM_P2
2023/07/03 00:02:18;;;;;;;1.50;1.00;;;16.40;91.50;;;;;;4996687;28;20977;-85
2023/07/03 00:04:45;;;;;;;1.50;1.00;;;16.40;91.70;;;;;;5003238;28;20496;-89
2023/07/03 00:07:14;;;;;;;1.50;0.97;;;16.30;92.10;;;;;;5006092;28;20464;-85
2023/07/03 00:09:41;;;;;;;1.47;0.90;;;16.30;92.30;;;;;;5005698;28;20488;-84
2023/07/03 00:12:09;;;;;;;1.47;0.90;;;16.30;92.10;;;;;;5000211;28;20484;-83
2023/07/03 00:14:37;;;;;;;1.50;1.00;;;16.20;92.90;;;;;;4999856;28;20461;-82
2023/07/03 00:17:04;;;;;;;1.50;0.90;;;16.20;92.90;;;;;;4997065;28;20467;-83
2023/07/03 00:19:32;;;;;;;1.43;0.97;;;16.10;93.00;;;;;;5000627;28;20484;-84
2023/07/03 00:22:00;;;;;;;1.50;1.00;;;16.10;93.20;;;;;;5007472;28;20885;-88
2023/07/03 00:24:28;;;;;;;1.50;1.00;;;16.00;93.50;;;;;;5006195;28;20526;-86
2023/07/03 00:26:55;;;;;;;1.50;1.00;;;16.00;93.20;;;;;;5011437;28;20471;-87
2023/07/03 00:29:21;;;;;;;1.50;1.00;;;16.00;93.30;;;;;;5007978;28;20520;-87
2023/07/03 00:31:50;;;;;;;1.60;1.27;;;15.90;93.30;;;;;;5009619;28;20557;-86
2023/07/03 00:34:18;;;;;;;1.47;1.00;;;15.90;93.90;;;;;;5010217;28;20461;-86
2023/07/03 00:36:45;;;;;;;1.50;1.00;;;15.80;93.90;;;;;;5011441;28;20469;-87
2023/07/03 00:39:12;;;;;;;1.50;1.00;;;15.80;93.80;;;;;;5011233;28;20475;-87
2023/07/03 00:41:39;;;;;;;1.50;1.00;;;15.80;94.00;;;;;;5010112;28;20596;-88
2023/07/03 00:44:10;;;;;;;1.50;1.00;;;15.70;94.60;;;;;;5008115;28;20462;-84
2023/07/03 00:46:37;;;;;;;1.40;1.00;;;15.70;94.10;;;;;;5009324;28;20463;-87
2023/07/03 00:49:05;;;;;;;1.50;1.00;;;15.70;94.10;;;;;;5004398;28;20456;-86
2023/07/03 00:51:32;;;;;;;1.40;0.90;;;15.70;94.10;;;;;;5009851;28;20463;-85
2023/07/03 00:53:59;;;;;;;2.07;1.87;;;15.70;94.40;;;;;;5011127;28;20456;-86
2023/07/03 00:56:26;;;;;;;1.50;1.10;;;15.60;94.20;;;;;;5010339;28;21070;-87
2023/07/03 00:58:53;;;;;;;1.50;1.00;;;15.60;94.30;;;;;;5009330;28;20483;-86
2023/07/03 01:01:26;;;;;;;1.50;1.00;;;15.60;94.10;;;;;;5009289;28;20457;-89
2023/07/03 01:03:59;;;;;;;1.50;1.00;;;15.60;94.90;;;;;;5007244;28;20525;-86
2023/07/03 01:06:34;;;;;;;1.50;1.00;;;15.50;95.00;;;;;;5007874;28;20457;-91
2023/07/03 01:09:02;;;;;;;1.50;0.97;;;15.50;94.80;;;;;;5011864;28;20805;-87
2023/07/03 01:11:30;;;;;;;1.50;0.90;;;15.50;94.90;;;;;;5011527;28;20489;-87
2023/07/03 01:14:00;;;;;;;1.50;1.00;;;15.50;95.00;;;;;;5010454;28;20545;-87
2023/07/03 01:16:26;;;;;;;1.50;1.20;;;15.40;95.40;;;;;;5008695;28;20745;-87
2023/07/03 01:18:54;;;;;;;1.47;1.00;;;15.40;95.70;;;;;;5012555;28;20534;-88
2023/07/03 01:21:29;;;;;;;1.50;1.00;;;15.40;96.00;;;;;;5010486;28;21015;-85
2023/07/03 01:24:04;;;;;;;1.50;1.00;;;15.30;95.70;;;;;;5001770;28;20456;-88
2023/07/03 01:26:33;;;;;;;1.50;1.00;;;15.30;95.60;;;;;;5002865;28;21058;-86
2023/07/03 01:29:03;;;;;;;1.50;1.00;;;15.30;96.40;;;;;;5010543;28;20463;-86
2023/07/03 01:31:31;;;;;;;1.50;0.90;;;15.30;96.20;;;;;;5010202;28;20519;-89
2023/07/03 01:34:00;;;;;;;1.50;1.00;;;15.20;96.10;;;;;;5010927;28;20834;-87
2023/07/03 01:36:28;;;;;;;1.47;0.90;;;15.20;96.50;;;;;;5009881;28;20891;-86
2023/07/03 01:38:57;;;;;;;1.47;1.00;;;15.20;96.80;;;;;;5011773;28;20468;-86
2023/07/03 01:41:24;;;;;;;1.50;1.00;;;15.20;96.60;;;;;;5007577;28;20545;-88
2023/07/03 01:43:53;;;;;;;1.50;1.00;;;15.10;96.70;;;;;;5011775;28;20475;-86
2023/07/03 01:46:20;;;;;;;1.50;1.00;;;15.10;97.00;;;;;;5012316;28;20490;-86
2023/07/03 01:48:47;;;;;;;1.50;1.00;;;15.10;97.40;;;;;;5011211;28;20465;-86
2023/07/03 01:51:19;;;;;;;1.47;0.97;;;15.10;98.20;;;;;;5011226;28;20559;-87
2023/07/03 01:53:50;;;;;;;1.50;1.00;;;15.00;98.00;;;;;;5011291;28;20464;-90
2023/07/03 01:56:21;;;;;;;2.00;1.80;;;15.00;98.00;;;;;;5011803;28;21034;-87
2023/07/03 01:58:50;;;;;;;1.50;1.00;;;15.00;98.10;;;;;;5012332;28;20468;-88
2023/07/03 02:01:24;;;;;;;1.50;1.00;;;15.00;98.10;;;;;;5008191;28;20459;-89
2023/07/03 02:03:55;;;;;;;1.50;1.00;;;15.00;98.20;;;;;;5011469;28;20748;-89
2023/07/03 02:06:24;;;;;;;1.50;1.00;;;15.00;98.20;;;;;;5012595;28;20558;-87
2023/07/03 02:08:53;;;;;;;1.50;1.10;;;15.00;98.20;;;;;;5013543;28;20460;-88
2023/07/03 02:11:22;;;;;;;1.50;1.00;;;15.00;98.20;;;;;;5011347;28;20484;-84
2023/07/03 02:13:50;;;;;;;1.50;1.07;;;14.90;98.20;;;;;;5013507;28;20499;-87
2023/07/03 02:16:18;;;;;;;1.47;1.00;;;14.90;98.20;;;;;;5012152;28;20462;-86
2023/07/03 02:18:46;;;;;;;1.50;0.97;;;14.90;98.20;;;;;;5009615;28;20528;-86
2023/07/03 02:21:13;;;;;;;1.50;0.90;;;14.90;98.20;;;;;;5011261;28;20452;-88
2023/07/03 02:23:40;;;;;;;1.43;0.90;;;14.90;98.20;;;;;;5041259;22;20612;-80
2023/07/03 02:26:09;;;;;;;1.50;1.00;;;14.90;98.20;;;;;;5032732;28;20463;-80
2023/07/03 02:28:36;;;;;;;1.50;1.00;;;14.90;98.20;;;;;;5027187;28;20754;-81
2023/07/03 02:31:03;;;;;;;1.47;1.00;;;14.90;98.20;;;;;;5030069;28;20953;-80
2023/07/03 02:33:32;;;;;;;1.50;1.00;;;14.90;98.20;;;;;;5021880;28;20480;-80
2023/07/03 02:36:01;;;;;;;1.50;1.00;;;14.90;98.20;;;;;;5022768;28;21587;-80
2023/07/03 02:38:28;;;;;;;1.50;1.00;;;14.90;98.20;;;;;;5019014;28;20479;-80
2023/07/03 02:40:54;;;;;;;1.50;1.00;;;14.90;98.20;;;;;;5021373;28;20466;-80
2023/07/03 02:43:21;;;;;;;1.50;1.00;;;14.90;98.20;;;;;;5021378;28;20484;-81
2023/07/03 02:45:48;;;;;;;1.50;1.10;;;14.90;98.20;;;;;;5032986;28;20460;-80
2023/07/03 02:48:15;;;;;;;1.47;0.97;;;14.80;98.20;;;;;;5034727;28;20455;-80
2023/07/03 02:50:43;;;;;;;1.50;1.00;;;14.80;98.20;;;;;;5025641;28;20471;-81
2023/07/03 02:53:10;;;;;;;1.47;1.00;;;14.80;98.20;;;;;;5027658;28;20773;-80
2023/07/03 02:55:36;;;;;;;1.50;1.00;;;14.80;98.20;;;;;;5022965;28;20464;-80
2023/07/03 02:58:03;;;;;;;1.50;1.00;;;14.80;98.20;;;;;;5021910;28;20861;-80
2023/07/03 03:00:30;;;;;;;1.50;1.00;;;14.80;98.20;;;;;;5022841;28;20471;-80
2023/07/03 03:02:57;;;;;;;1.50;0.90;;;14.80;98.20;;;;;;5021232;28;20486;-80
2023/07/03 03:05:23;;;;;;;1.50;1.00;;;14.80;98.20;;;;;;5018701;28;20535;-78
2023/07/03 03:07:52;;;;;;;1.50;1.00;;;14.80;98.20;;;;;;5021276;28;20861;-80
2023/07/03 03:10:19;;;;;;;1.50;1.00;;;14.80;98.20;;;;;;5020127;28;20503;-80
2023/07/03 03:12:45;;;;;;;1.50;1.00;;;14.80;98.20;;;;;;5017581;28;20487;-81
2023/07/03 03:15:12;;;;;;;1.50;1.00;;;14.80;98.20;;;;;;5017547;28;20468;-81
2023/07/03 03:17:39;;;;;;;1.40;1.00;;;14.80;98.20;;;;;;5022285;28;20475;-81
2023/07/03 03:20:08;;;;;;;1.47;0.97;;;14.90;98.20;;;;;;5019344;28;20468;-81
2023/07/03 03:22:35;;;;;;;1.50;0.93;;;14.90;98.20;;;;;;5021656;28;20593;-81
2023/07/03 03:25:03;;;;;;;1.50;1.00;;;14.90;98.20;;;;;;5017776;28;20981;-81
2023/07/03 03:27:30;;;;;;;1.50;1.00;;;15.00;98.20;;;;;;5020910;28;20530;-80
2023/07/03 03:29:57;;;;;;;1.43;1.07;;;15.00;98.20;;;;;;5014950;28;20474;-80
2023/07/03 03:32:23;;;;;;;2.03;1.83;;;15.00;98.20;;;;;;5020309;28;20491;-81
2023/07/03 03:34:51;;;;;;;1.47;1.00;;;15.00;98.20;;;;;;5020026;28;20842;-81
2023/07/03 03:37:18;;;;;;;1.50;0.93;;;15.00;98.20;;;;;;5020566;28;20499;-81
2023/07/03 03:39:45;;;;;;;1.50;1.00;;;15.10;98.20;;;;;;5015429;28;20456;-80
2023/07/03 03:42:13;;;;;;;1.47;1.00;;;15.10;98.20;;;;;;5020684;28;20479;-80
2023/07/03 03:44:40;;;;;;;1.50;1.00;;;15.10;98.20;;;;;;5022321;28;20542;-80
2023/07/03 03:47:06;;;;;;;1.50;1.00;;;15.10;98.20;;;;;;5022023;28;20790;-80
2023/07/03 03:49:33;;;;;;;1.50;1.03;;;15.10;98.20;;;;;;5020983;28;20575;-80
2023/07/03 03:52:00;;;;;;;1.47;0.97;;;15.20;98.20;;;;;;5021841;28;20514;-80
2023/07/03 03:54:27;;;;;;;1.50;1.00;;;15.20;98.20;;;;;;5022586;28;20460;-80
2023/07/03 03:56:54;;;;;;;1.47;1.00;;;15.20;98.20;;;;;;5022667;28;20463;-80
2023/07/03 03:59:22;;;;;;;1.50;1.00;;;15.20;98.20;;;;;;5022565;28;20464;-81
2023/07/03 04:01:49;;;;;;;1.50;1.00;;;15.20;98.20;;;;;;5021799;28;20505;-81
2023/07/03 04:04:16;;;;;;;1.50;1.00;;;15.20;98.20;;;;;;5020918;28;20456;-81
2023/07/03 04:06:43;;;;;;;1.50;1.00;;;15.20;98.20;;;;;;5024920;28;20788;-80
2023/07/03 04:09:10;;;;;;;1.47;1.00;;;15.20;98.20;;;;;;5020223;28;20496;-80
2023/07/03 04:11:37;;;;;;;1.47;1.00;;;15.30;98.20;;;;;;5025293;28;20503;-80
2023/07/03 04:14:04;;;;;;;1.50;0.93;;;15.30;98.20;;;;;;5019405;28;20479;-80
2023/07/03 04:16:33;;;;;;;1.47;0.90;;;15.30;98.20;;;;;;5024260;28;20460;-81
2023/07/03 04:19:00;;;;;;;1.50;1.00;;;15.30;98.20;;;;;;5017856;28;20538;-80
2023/07/03 04:21:26;;;;;;;1.50;0.90;;;15.30;98.20;;;;;;5022609;28;20887;-81
2023/07/03 04:23:53;;;;;;;1.50;0.97;;;15.30;98.20;;;;;;5024039;28;20483;-81
2023/07/03 04:26:22;;;;;;;1.47;0.90;;;15.40;98.20;;;;;;5022077;28;20463;-81
2023/07/03 04:28:49;;;;;;;1.50;1.00;;;15.40;98.20;;;;;;5021806;28;20464;-81
2023/07/03 04:31:16;;;;;;;1.70;1.57;;;15.40;98.20;;;;;;5023071;28;20824;-80
2023/07/03 04:33:45;;;;;;;1.47;0.97;;;15.40;98.20;;;;;;5022067;28;20613;-80
2023/07/03 04:36:12;;;;;;;1.47;0.90;;;15.40;98.20;;;;;;5022491;28;20464;-80
2023/07/03 04:38:41;;;;;;;1.50;1.00;;;15.40;98.20;;;;;;5021177;28;20548;-81
2023/07/03 04:41:08;;;;;;;1.50;1.00;;;15.50;98.20;;;;;;5021096;28;20471;-80
2023/07/03 04:43:35;;;;;;;1.50;1.00;;;15.50;98.20;;;;;;5023859;28;21045;-80
2023/07/03 04:46:03;;;;;;;1.50;1.20;;;15.50;98.20;;;;;;5022049;28;20460;-80
2023/07/03 04:48:30;;;;;;;1.50;1.00;;;15.60;98.20;;;;;;5023026;28;20628;-80
2023/07/03 04:50:58;;;;;;;1.50;1.00;;;15.60;98.20;;;;;;5021024;28;20479;-80
2023/07/03 04:53:26;;;;;;;1.43;1.00;;;15.70;98.20;;;;;;5014797;28;20555;-81
2023/07/03 04:55:53;;;;;;;1.47;0.90;;;15.70;98.20;;;;;;5020898;28;20486;-80
2023/07/03 04:58:20;;;;;;;1.50;1.00;;;15.80;98.20;;;;;;5022323;28;20467;-80
2023/07/03 05:00:46;;;;;;;1.50;0.90;;;15.80;98.20;;;;;;5020303;28;20448;-80
2023/07/03 05:03:13;;;;;;;1.47;0.90;;;15.90;98.20;;;;;;5012349;28;21088;-80
2023/07/03 05:05:40;;;;;;;1.50;1.00;;;16.00;98.20;;;;;;5010522;28;20977;-80
2023/07/03 05:08:08;;;;;;;1.40;1.00;;;16.00;98.20;;;;;;5009611;28;20470;-81
2023/07/03 05:10:35;;;;;;;1.50;1.00;;;16.10;98.20;;;;;;5010359;28;20468;-80
2023/07/03 05:13:02;;;;;;;1.50;0.93;;;16.10;98.20;;;;;;5013723;28;20874;-80
2023/07/03 05:15:30;;;;;;;1.47;1.13;;;16.10;98.20;;;;;;5013588;28;20854;-81
2023/07/03 05:17:57;;;;;;;1.50;0.90;;;16.20;98.20;;;;;;5015488;28;20518;-80
2023/07/03 05:20:25;;;;;;;1.50;0.90;;;16.20;98.20;;;;;;5014578;28;20475;-80
2023/07/03 05:22:53;;;;;;;1.50;1.00;;;16.30;98.20;;;;;;5017479;28;20786;-81
2023/07/03 05:25:21;;;;;;;1.47;0.90;;;16.30;98.20;;;;;;5013980;28;20495;-80
2023/07/03 05:27:49;;;;;;;1.50;1.00;;;16.40;98.20;;;;;;5007900;28;20998;-79
2023/07/03 05:30:16;;;;;;;1.43;0.90;;;16.50;98.20;;;;;;4981623;28;20495;-79
2023/07/03 05:32:43;;;;;;;1.50;1.00;;;16.50;98.20;;;;;;4974829;28;20500;-80
2023/07/03 05:35:11;;;;;;;1.50;0.97;;;16.50;98.20;;;;;;4973242;28;20470;-79
2023/07/03 05:37:38;;;;;;;1.50;1.00;;;16.60;98.20;;;;;;4959951;28;20479;-79
2023/07/03 05:40:07;;;;;;;1.50;1.00;;;16.60;98.20;;;;;;4961746;28;20478;-80
2023/07/03 05:42:35;;;;;;;1.50;0.93;;;16.70;98.20;;;;;;4962044;28;20471;-79
2023/07/03 05:45:03;;;;;;;1.50;1.10;;;16.70;98.20;;;;;;4965775;28;20496;-80
2023/07/03 05:47:29;;;;;;;1.50;1.00;;;16.80;98.20;;;;;;4967899;28;20469;-79
2023/07/03 05:49:57;;;;;;;1.50;0.90;;;16.90;98.20;;;;;;4978649;28;20462;-81
2023/07/03 05:52:24;;;;;;;3.30;3.10;;;16.90;98.20;;;;;;4988989;28;20485;-80
2023/07/03 05:54:51;;;;;;;1.47;0.90;;;17.00;98.20;;;;;;4979006;28;20461;-80
2023/07/03 05:57:18;;;;;;;1.50;1.00;;;17.00;98.20;;;;;;4961775;28;20473;-81
2023/07/03 05:59:46;;;;;;;1.47;0.90;;;17.10;98.20;;;;;;4964763;28;20472;-81
2023/07/03 06:02:15;;;;;;;1.47;1.00;;;17.10;98.20;;;;;;4969634;28;20477;-81
2023/07/03 06:04:42;;;;;;;1.50;1.00;;;17.10;98.20;;;;;;4975211;28;20457;-80
2023/07/03 06:07:10;;;;;;;1.50;0.90;;;17.10;98.20;;;;;;4972439;28;20462;-80
2023/07/03 06:09:37;;;;;;;1.50;0.90;;;17.10;98.20;;;;;;4971132;28;20483;-80
2023/07/03 06:12:05;;;;;;;1.50;0.90;;;17.20;98.20;;;;;;4972330;28;20528;-80
2023/07/03 06:14:32;;;;;;;1.50;1.00;;;17.20;98.20;;;;;;4979686;28;20466;-80
2023/07/03 06:17:01;;;;;;;1.47;0.90;;;17.30;98.20;;;;;;4975740;28;21046;-81
2023/07/03 06:19:28;;;;;;;1.43;0.90;;;17.30;98.20;;;;;;4970492;28;20462;-80
2023/07/03 06:21:56;;;;;;;1.43;0.90;;;17.30;98.20;;;;;;4978659;28;20464;-80
2023/07/03 06:24:23;;;;;;;1.50;0.90;;;17.30;98.20;;;;;;4973687;28;20501;-79
2023/07/03 06:26:51;;;;;;;1.50;0.90;;;17.40;98.20;;;;;;4969994;28;20466;-80
2023/07/03 06:29:17;;;;;;;1.47;0.97;;;17.40;98.20;;;;;;4965870;28;20770;-80
2023/07/03 06:31:44;;;;;;;1.43;0.90;;;17.50;98.20;;;;;;4969413;28;21045;-79
2023/07/03 06:34:12;;;;;;;1.50;0.90;;;17.50;98.20;;;;;;4970209;28;20465;-82
2023/07/03 06:36:39;;;;;;;1.50;0.90;;;17.60;98.20;;;;;;4975248;28;20471;-80
2023/07/03 06:39:08;;;;;;;2.10;1.60;;;17.60;98.20;;;;;;4975530;28;20478;-79
2023/07/03 06:41:35;;;;;;;1.50;0.90;;;17.70;98.20;;;;;;4960921;28;20528;-79
2023/07/03 06:44:03;;;;;;;1.50;1.00;;;17.80;98.20;;;;;;4959902;28;20496;-80
2023/07/03 06:46:30;;;;;;;1.40;0.90;;;17.80;98.20;;;;;;4958139;28;20523;-80
2023/07/03 06:48:57;;;;;;;1.50;1.00;;;17.90;98.20;;;;;;4963183;28;20469;-80
2023/07/03 06:51:26;;;;;;;1.50;0.90;;;18.00;98.20;;;;;;4958941;28;20996;-79
2023/07/03 06:53:53;;;;;;;1.47;0.90;;;18.10;98.20;;;;;;4959373;28;20486;-78
2023/07/03 06:56:21;;;;;;;1.50;1.00;;;18.10;98.20;;;;;;4959476;28;21002;-79
2023/07/03 06:58:48;;;;;;;1.50;0.93;;;18.10;98.20;;;;;;4964966;28;20546;-78
2023/07/03 07:01:17;;;;;;;1.50;1.10;;;18.20;98.20;;;;;;4960157;28;20494;-80
2023/07/03 07:03:44;;;;;;;1.43;0.90;;;18.30;98.20;;;;;;4966194;28;20488;-80
2023/07/03 07:06:12;;;;;;;1.50;0.90;;;18.40;98.20;;;;;;4964751;28;20569;-79
2023/07/03 07:08:41;;;;;;;1.40;0.90;;;18.40;98.10;;;;;;4967982;28;21033;-80
2023/07/03 07:11:09;;;;;;;1.50;0.90;;;18.50;97.80;;;;;;4968256;28;20993;-77
2023/07/03 07:13:38;;;;;;;1.50;0.90;;;18.60;98.00;;;;;;4971306;28;20522;-79
2023/07/03 07:16:05;;;;;;;1.50;0.90;;;18.60;97.70;;;;;;4970993;28;20468;-78
2023/07/03 07:18:32;;;;;;;1.50;0.93;;;18.60;97.20;;;;;;4973878;28;20468;-78
2023/07/03 07:21:01;;;;;;;1.47;0.90;;;18.60;97.20;;;;;;4968695;28;20556;-78
2023/07/03 07:23:28;;;;;;;1.50;0.90;;;18.70;97.20;;;;;;4966951;28;20496;-79
2023/07/03 07:25:56;;;;;;;1.50;0.90;;;19.00;96.50;;;;;;4958239;28;21031;-79
2023/07/03 07:28:23;;;;;;;1.60;1.20;;;19.30;95.60;;;;;;4961791;28;20467;-78
2023/07/03 07:30:50;;;;;;;1.50;1.10;;;19.50;95.60;;;;;;4954957;28;20463;-79
2023/07/03 07:33:17;;;;;;;1.50;0.90;;;19.60;92.90;;;;;;4960883;28;20927;-79
2023/07/03 07:35:44;;;;;;;1.40;0.90;;;19.70;92.60;;;;;;4963261;28;20473;-79
2023/07/03 07:38:11;;;;;;;1.47;0.90;;;19.80;93.10;;;;;;4962349;28;20470;-77
2023/07/03 07:40:38;;;;;;;1.50;0.90;;;20.00;93.60;;;;;;4963663;28;20842;-78
2023/07/03 07:43:07;;;;;;;1.50;0.90;;;20.40;91.40;;;;;;4963100;28;20485;-78
2023/07/03 07:45:34;;;;;;;1.50;0.90;;;20.70;89.90;;;;;;4969846;28;20478;-79
2023/07/03 07:48:01;;;;;;;1.47;0.90;;;20.90;88.40;;;;;;4974498;28;20473;-79
2023/07/03 07:50:29;;;;;;;2.80;2.60;;;21.20;87.80;;;;;;4972894;28;20497;-78
2023/07/03 07:52:59;;;;;;;1.50;0.90;;;21.30;88.70;;;;;;4961655;28;20504;-78
2023/07/03 07:55:26;;;;;;;1.50;0.90;;;21.40;86.20;;;;;;4960217;28;20910;-78
2023/07/03 07:57:53;;;;;;;1.50;0.90;;;21.50;86.20;;;;;;4959829;28;20682;-78
2023/07/03 08:00:22;;;;;;;1.50;0.87;;;21.60;85.10;;;;;;4964590;28;20553;-77
2023/07/03 08:02:49;;;;;;;1.50;0.90;;;21.60;83.70;;;;;;4964107;28;20487;-77
2023/07/03 08:05:16;;;;;;;1.50;0.90;;;21.70;83.30;;;;;;4963083;28;20494;-79
2023/07/03 08:07:44;;;;;;;1.47;0.90;;;21.60;83.50;;;;;;4964598;28;20521;-78
2023/07/03 08:10:12;;;;;;;1.60;1.20;;;21.50;82.90;;;;;;4966747;28;20470;-78
2023/07/03 08:12:39;;;;;;;1.50;0.90;;;21.40;83.10;;;;;;4968037;28;20902;-79
2023/07/03 08:15:07;;;;;;;1.50;0.90;;;21.50;83.30;;;;;;4967502;28;20957;-79
2023/07/03 08:17:36;;;;;;;1.50;0.90;;;21.90;82.80;;;;;;4958048;28;20549;-80
2023/07/03 08:20:08;;;;;;;1.47;0.90;;;22.00;81.40;;;;;;4956626;28;21480;-78
2023/07/03 08:22:35;;;;;;;1.47;0.90;;;22.10;81.10;;;;;;4962253;28;20497;-79
2023/07/03 08:25:02;;;;;;;1.47;0.90;;;22.30;79.50;;;;;;4962841;28;20468;-78
2023/07/03 08:27:28;;;;;;;1.50;0.90;;;22.50;79.70;;;;;;4963834;28;20473;-79
2023/07/03 08:29:56;;;;;;;1.50;1.00;;;22.50;77.00;;;;;;4970226;28;21270;-79
2023/07/03 08:32:24;;;;;;;1.47;0.90;;;22.40;78.20;;;;;;4970745;28;20927;-80
2023/07/03 08:34:52;;;;;;;1.87;1.43;;;22.30;78.70;;;;;;4971566;28;20474;-80
2023/07/03 08:37:19;;;;;;;1.47;0.90;;;22.40;78.40;;;;;;4962772;28;20520;-80
2023/07/03 08:39:46;;;;;;;1.47;0.90;;;22.40;78.50;;;;;;4971133;28;20467;-81
2023/07/03 08:42:19;;;;;;;1.50;1.00;;;22.60;78.60;;;;;;4965297;28;20931;-79
2023/07/03 08:44:46;;;;;;;1.50;0.90;;;23.00;76.80;;;;;;4963078;28;20473;-79
2023/07/03 08:47:18;;;;;;;1.50;0.90;;;23.10;77.30;;;;;;4967336;28;20497;-80
2023/07/03 08:49:47;;;;;;;1.47;0.87;;;23.20;75.20;;;;;;4968621;28;20488;-78
2023/07/03 08:52:20;;;;;;;1.47;0.80;;;23.20;75.70;;;;;;4969047;28;20682;-77
2023/07/03 08:54:49;;;;;;;1.47;0.90;;;23.20;76.10;;;;;;4971779;28;20480;-79
2023/07/03 08:57:16;;;;;;;1.50;1.10;;;23.10;76.00;;;;;;4983003;28;20462;-80
2023/07/03 08:59:43;;;;;;;1.50;0.90;;;23.10;74.80;;;;;;4992889;28;20452;-80
2023/07/03 09:02:20;;;;;;;1.50;0.83;;;23.10;75.40;;;;;;4974207;28;20476;-81
2023/07/03 09:05:03;;;;;;;1.80;1.47;;;23.00;75.40;;;;;;4974620;28;20495;-81
2023/07/03 09:07:41;;;;;;;1.50;0.83;;;23.00;75.20;;;;;;4974922;28;20462;-81
2023/07/03 09:10:16;;;;;;;1.50;0.90;;;23.00;75.70;;;;;;4972104;28;20563;-83
2023/07/03 09:12:49;;;;;;;1.47;0.90;;;23.20;75.80;;;;;;4965962;28;20497;-81
2023/07/03 09:15:26;;;;;;;1.47;0.90;;;23.30;75.10;;;;;;4953316;28;21023;-83
2023/07/03 09:17:55;;;;;;;1.50;0.90;;;23.30;74.50;;;;;;4953505;28;20474;-80
2023/07/03 09:20:25;;;;;;;1.47;0.83;;;23.20;76.00;;;;;;4957897;28;21188;-81
2023/07/03 09:22:58;;;;;;;1.63;1.20;;;23.20;76.40;;;;;;4961884;28;21594;-80
2023/07/03 09:25:31;;;;;;;1.43;0.90;;;23.20;75.80;;;;;;4964457;28;20516;-81
2023/07/03 09:28:02;;;;;;;1.50;0.87;;;23.10;75.60;;;;;;4966367;28;20485;-79
2023/07/03 09:30:29;;;;;;;1.53;1.10;;;22.90;74.40;;;;;;4970432;28;20961;-80
2023/07/03 09:32:57;;;;;;;1.50;0.90;;;22.60;75.80;;;;;;4973185;28;20497;-80
2023/07/03 09:35:25;;;;;;;1.50;0.90;;;22.60;76.20;;;;;;4958275;28;20474;-81
2023/07/03 09:38:01;;;;;;;1.50;0.90;;;22.50;76.60;;;;;;4959291;28;20478;-81
2023/07/03 09:40:30;;;;;;;1.50;1.00;;;22.40;77.80;;;;;;4957119;28;20900;-80
2023/07/03 09:43:03;;;;;;;1.50;1.00;;;22.30;77.30;;;;;;4962819;28;20478;-81
2023/07/03 09:45:33;;;;;;;1.80;1.57;;;22.30;77.70;;;;;;4969437;28;21126;-81
2023/07/03 09:48:02;;;;;;;1.43;0.90;;;22.30;76.30;;;;;;4963342;28;20500;-81
2023/07/03 09:50:32;;;;;;;1.47;0.80;;;22.20;76.50;;;;;;4955264;28;20541;-85
2023/07/03 09:56:25;;;;;;;1.47;0.90;;;22.50;76.60;;;;;;4958929;28;20470;-86
2023/07/03 09:58:55;;;;;;;1.47;0.90;;;22.60;77.30;;;;;;4964861;28;20512;-85
2023/07/03 10:01:36;;;;;;;1.47;0.90;;;22.80;77.40;;;;;;4965896;28;20574;-86
2023/07/03 10:04:05;;;;;;;1.50;0.90;;;22.90;76.20;;;;;;4968723;28;20991;-81
2023/07/03 10:07:04;;;;;;;1.47;0.90;;;22.90;74.50;;;;;;4965218;28;20478;-85
2023/07/03 10:09:34;;;;;;;1.43;0.90;;;22.80;74.30;;;;;;4958517;28;20461;-84
2023/07/03 10:12:09;;;;;;;1.43;0.90;;;22.70;74.50;;;;;;4957879;28;20469;-82
2023/07/03 10:14:42;;;;;;;1.47;0.90;;;22.60;74.70;;;;;;4956526;28;20670;-82
2023/07/03 10:17:15;;;;;;;2.60;2.40;;;22.40;74.50;;;;;;4962288;28;21055;-84
2023/07/03 10:19:47;;;;;;;1.47;0.90;;;22.10;74.80;;;;;;4963586;28;20470;-77
2023/07/03 10:22:16;;;;;;;1.47;0.90;;;21.90;75.30;;;;;;4957399;28;20517;-79
2023/07/03 10:24:46;;;;;;;1.70;1.27;;;21.70;76.30;;;;;;4955714;28;20561;-80
2023/07/03 10:27:20;;;;;;;1.47;0.90;;;21.60;76.50;;;;;;4962365;28;20461;-83
2023/07/03 10:29:53;;;;;;;1.47;0.90;;;21.50;77.00;;;;;;4957095;28;20465;-80
2023/07/03 10:32:21;;;;;;;1.50;0.90;;;21.40;77.40;;;;;;4957529;28;20485;-81
2023/07/03 10:34:55;;;;;;;1.47;0.90;;;21.20;78.10;;;;;;4963847;28;20922;-81
2023/07/03 10:37:25;;;;;;;1.47;0.90;;;21.10;79.10;;;;;;4965109;28;20464;-82
2023/07/03 10:39:57;;;;;;;1.50;0.90;;;21.10;78.80;;;;;;4970077;28;20469;-82
2023/07/03 10:42:29;;;;;;;1.50;0.90;;;21.10;78.80;;;;;;4969878;28;20495;-80
2023/07/03 10:45:01;;;;;;;1.47;0.90;;;21.10;79.40;;;;;;4959656;28;20832;-83
2023/07/03 10:47:34;;;;;;;1.47;0.87;;;21.20;79.30;;;;;;4956894;28;20956;-83
2023/07/03 10:50:03;;;;;;;1.40;0.90;;;21.30;80.10;;;;;;4959503;28;20465;-82
2023/07/03 10:52:37;;;;;;;1.43;0.90;;;21.40;79.80;;;;;;4964892;28;20530;-81
2023/07/03 10:55:14;;;;;;;1.43;0.90;;;21.60;79.70;;;;;;4963221;28;20491;-81
2023/07/03 10:57:50;;;;;;;1.50;0.90;;;21.80;79.00;;;;;;4967898;28;20483;-81
2023/07/03 11:00:38;;;;;;;1.50;1.00;;;22.00;78.40;;;;;;4954083;28;20478;-81
2023/07/03 11:03:15;;;;;;;1.50;1.00;;;22.10;77.90;;;;;;4958620;28;21167;-81
2023/07/03 11:05:48;;;;;;;1.43;0.87;;;22.10;77.80;;;;;;4957593;28;21084;-80
2023/07/03 11:08:21;;;;;;;1.50;0.90;;;22.20;78.40;;;;;;4959706;28;20565;-79
2023/07/03 11:11:02;;;;;;;1.50;0.90;;;22.30;78.40;;;;;;4963884;28;20512;-81
2023/07/03 11:13:38;;;;;;;1.50;0.90;;;22.30;78.80;;;;;;4967410;28;20548;-80
2023/07/03 11:16:13;;;;;;;1.40;0.90;;;22.60;79.00;;;;;;4959962;28;20494;-80
2023/07/03 11:18:56;;;;;;;1.47;0.90;;;22.80;77.70;;;;;;4960714;28;21257;-79
2023/07/03 11:21:36;;;;;;;1.47;0.90;;;22.90;77.70;;;;;;4960013;28;20504;-80
2023/07/03 11:24:10;;;;;;;1.47;0.90;;;23.00;77.40;;;;;;4971584;28;20495;-80
2023/07/03 11:26:40;;;;;;;1.40;0.90;;;23.20;77.70;;;;;;4964452;28;20466;-81
2023/07/03 11:29:10;;;;;;;1.50;0.80;;;23.40;77.10;;;;;;4967386;28;21014;-79
2023/07/03 11:31:39;;;;;;;1.50;0.90;;;23.60;77.20;;;;;;4973217;28;20836;-81
2023/07/03 11:34:07;;;;;;;1.50;0.90;;;23.80;76.50;;;;;;4958025;28;20498;-80
2023/07/03 11:36:38;;;;;;;1.40;0.80;;;23.80;76.00;;;;;;4963410;28;20505;-82
2023/07/03 11:39:19;;;;;;;1.47;0.90;;;24.00;76.80;;;;;;4964422;28;20564;-80
2023/07/03 11:41:51;;;;;;;1.43;0.90;;;24.10;75.80;;;;;;4969464;28;20643;-82
2023/07/03 11:44:30;;;;;;;1.47;0.80;;;24.50;75.00;;;;;;4965907;28;21039;-80
2023/07/03 11:47:00;;;;;;;1.50;0.90;;;24.70;74.60;;;;;;4970660;28;20469;-82
2023/07/03 11:49:31;;;;;;;1.40;0.80;;;24.80;73.50;;;;;;4958389;28;20466;-82
2023/07/03 11:52:01;;;;;;;1.50;0.80;;;24.90;73.50;;;;;;4958539;28;20499;-82
2023/07/03 11:54:31;;;;;;;1.47;0.80;;;24.80;73.20;;;;;;4962052;28;20933;-80
2023/07/03 11:57:06;;;;;;;1.40;0.80;;;24.70;73.40;;;;;;4964538;28;20765;-83
2023/07/03 11:59:36;;;;;;;1.40;0.80;;;24.70;74.00;;;;;;4970698;28;20690;-81
2023/07/03 12:02:44;;;;;;;1.43;0.80;;;24.80;74.00;;;;;;4970755;28;20477;-81
2023/07/03 12:05:12;;;;;;;1.50;0.90;;;25.20;73.90;;;;;;4976027;28;20497;-83
2023/07/03 12:07:52;;;;;;;1.43;0.80;;;25.70;72.80;;;;;;4979173;28;20471;-82
2023/07/03 12:10:58;;;;;;;1.50;0.80;;;26.10;70.30;;;;;;4970742;28;20485;-82
2023/07/03 12:13:46;;;;;;;1.43;0.80;;;26.50;68.40;;;;;;4963212;28;21019;-81
2023/07/03 12:16:18;;;;;;;1.40;0.90;;;26.70;67.70;;;;;;4970320;28;20476;-81
2023/07/03 12:18:46;;;;;;;1.43;0.90;;;26.90;67.00;;;;;;4963400;28;20537;-84
2023/07/03 12:21:13;;;;;;;1.80;1.20;;;27.10;67.00;;;;;;4962135;28;20466;-82
2023/07/03 12:23:42;;;;;;;1.50;0.80;;;27.20;65.50;;;;;;4965291;28;20503;-85
2023/07/03 12:26:13;;;;;;;1.47;0.80;;;27.00;65.40;;;;;;4962343;28;20905;-83
2023/07/03 12:28:42;;;;;;;1.47;0.80;;;27.10;66.90;;;;;;4959665;28;20516;-80
2023/07/03 12:31:15;;;;;;;1.50;0.80;;;27.10;66.00;;;;;;4960250;28;20466;-80
2023/07/03 12:33:53;;;;;;;1.50;0.80;;;27.00;66.50;;;;;;4971219;28;20551;-78
2023/07/03 12:36:28;;;;;;;1.47;0.80;;;26.70;66.20;;;;;;4972754;28;20557;-82
2023/07/03 12:38:57;;;;;;;1.43;0.80;;;26.40;67.20;;;;;;4962226;28;20543;-80
2023/07/03 12:41:30;;;;;;;1.47;0.80;;;26.40;67.80;;;;;;4967247;28;20492;-81
2023/07/03 12:44:01;;;;;;;1.50;0.80;;;26.50;67.90;;;;;;4962997;28;20482;-81
2023/07/03 12:46:30;;;;;;;1.43;0.80;;;26.70;68.00;;;;;;4965111;28;20499;-80
2023/07/03 12:49:09;;;;;;;1.47;0.80;;;27.00;68.40;;;;;;4965128;28;20868;-81
2023/07/03 12:51:39;;;;;;;1.43;0.80;;;27.10;66.50;;;;;;4954001;28;20548;-80
2023/07/03 12:54:07;;;;;;;1.60;1.10;;;27.10;66.40;;;;;;4954292;28;20486;-82
2023/07/03 12:56:37;;;;;;;1.43;0.80;;;27.00;65.80;;;;;;4960481;28;20465;-78
2023/07/03 12:59:08;;;;;;;1.40;0.80;;;27.10;65.00;;;;;;4958852;28;20467;-81
2023/07/03 13:01:36;;;;;;;1.43;0.87;;;27.20;64.40;;;;;;4967408;28;20474;-82
2023/07/03 13:04:04;;;;;;;1.47;0.80;;;27.30;65.40;;;;;;4973914;28;20543;-80